Time;durP1;ratioP1;P1;durP2;ratioP2;P2;SDS_P1;SDS_P2;PMS_P1;PMS_P2;Temp;Humidity;BMP_temperature;BMP_pressure;BME280_temperature;BME280_humidity;BME280_pressure;Samples;Min_cycle;Max_cycle;Signal;HPM_P1;HPM_P2
2023/05/13 00:02:21;;;;;;;348.38;18.17;;;;;;;10.76;68.26;100164.19;10432148;28;20079;-58
2023/05/13 00:07:24;;;;;;;405.50;16.85;;;;;;;10.72;68.57;100153.97;10406588;28;20045;-59
2023/05/13 00:12:26;;;;;;;455.95;14.82;;;;;;;10.62;68.68;100163.28;10378194;28;20041;-58
2023/05/13 00:17:28;;;;;;;161.18;9.95;;;;;;;10.69;68.79;100154.13;10435771;28;20068;-59
2023/05/13 00:22:30;;;;;;;25.42;7.30;;;;;;;10.76;68.37;100145.88;10404261;28;20057;-59
2023/05/13 00:27:31;;;;;;;37.00;6.38;;;;;;;10.73;68.33;100151.25;10402583;28;20052;-56
2023/05/13 00:32:33;;;;;;;98.82;8.88;;;;;;;10.70;68.52;100150.59;10386838;28;20495;-59
2023/05/13 00:37:35;;;;;;;82.70;7.60;;;;;;;10.68;68.73;100148.09;10387345;28;20215;-59
2023/05/13 00:42:37;;;;;;;92.90;8.82;;;;;;;10.61;68.67;100146.72;10386632;28;20049;-59
2023/05/13 00:47:40;;;;;;;58.53;8.02;;;;;;;10.60;68.50;100139.81;10393345;28;20055;-58
2023/05/13 00:52:43;;;;;;;23.33;8.30;;;;;;;10.64;68.40;100151.81;10389054;28;20057;-58
2023/05/13 00:57:45;;;;;;;104.30;8.82;;;;;;;10.34;68.66;100150.88;10392558;28;20045;-58
2023/05/13 01:03:01;;;;;;;115.28;9.35;;;;;;;10.36;69.06;100155.09;10395479;28;20041;-58
2023/05/13 01:08:37;;;;;;;11.32;5.30;;;;;;;10.18;69.58;100160.47;10400502;28;20037;-58
2023/05/13 01:13:42;;;;;;;21.98;6.22;;;;;;;10.43;68.87;100159.06;10402478;28;20430;-58
2023/05/13 01:18:51;;;;;;;9.85;6.40;;;;;;;10.45;68.81;100166.81;10395741;28;20040;-58
2023/05/13 01:23:53;;;;;;;11.15;7.18;;;;;;;10.56;68.27;100174.06;10395277;28;20099;-59
2023/05/13 01:28:56;;;;;;;21.45;6.95;;;;;;;10.59;68.11;100171.28;10396057;28;20593;-58
2023/05/13 01:33:58;;;;;;;5.85;4.47;;;;;;;10.59;68.39;100163.44;10395279;28;20656;-58
2023/05/13 01:39:03;;;;;;;7.28;5.32;;;;;;;10.62;68.27;100163.28;10394294;28;20049;-58
2023/05/13 01:44:06;;;;;;;8.13;5.50;;;;;;;10.56;68.39;100153.16;10394268;28;20041;-58
2023/05/13 01:49:09;;;;;;;15.65;6.20;;;;;;;10.65;67.95;100148.25;10395220;28;20524;-58
2023/05/13 01:54:11;;;;;;;14.95;5.82;;;;;;;10.58;68.02;100146.91;10392023;28;20124;-58
2023/05/13 01:59:17;;;;;;;7.57;5.53;;;;;;;10.58;67.99;100139.06;10396427;28;20049;-59
2023/05/13 02:04:19;;;;;;;9.82;5.07;;;;;;;10.46;68.35;100147.59;10398656;28;20120;-59
2023/05/13 02:09:21;;;;;;;8.48;5.68;;;;;;;10.45;67.93;100138.06;10415597;28;20053;-58
2023/05/13 02:14:22;;;;;;;10.25;7.78;;;;;;;10.48;67.96;100135.28;10429995;28;20044;-58
2023/05/13 02:19:24;;;;;;;7.28;5.32;;;;;;;10.52;67.73;100139.41;10437306;28;20061;-59
2023/05/13 02:24:26;;;;;;;7.63;6.25;;;;;;;10.52;67.87;100133.34;10440847;28;20140;-58
2023/05/13 02:29:28;;;;;;;7.38;6.30;;;;;;;10.48;68.05;100143.13;10444221;28;20136;-59
2023/05/13 02:34:29;;;;;;;10.82;7.82;;;;;;;10.45;67.96;100148.53;10410353;28;20037;-57
2023/05/13 02:39:32;;;;;;;193.15;12.05;;;;;;;10.19;68.11;100155.19;10397857;28;20045;-58
2023/05/13 02:44:34;;;;;;;6.97;6.20;;;;;;;10.17;68.41;100153.59;10411142;28;20045;-58
2023/05/13 02:49:36;;;;;;;7.50;5.95;;;;;;;10.21;68.26;100152.50;10399612;28;21347;-57
2023/05/13 02:54:39;;;;;;;6.53;5.88;;;;;;;10.11;68.07;100148.69;10396521;28;20140;-58
2023/05/13 02:59:41;;;;;;;6.47;5.57;;;;;;;10.04;68.07;100144.72;10410378;28;20127;-58
2023/05/13 03:04:43;;;;;;;10.45;5.15;;;;;;;10.00;68.00;100149.28;10393320;28;20096;-58
2023/05/13 03:09:45;;;;;;;16.20;7.07;;;;;;;9.98;68.10;100150.28;10402887;28;20242;-58
2023/05/13 03:14:47;;;;;;;24.02;7.57;;;;;;;9.89;68.08;100151.59;10390813;28;20136;-58
2023/05/13 03:19:48;;;;;;;8.88;6.00;;;;;;;9.70;68.15;100157.88;10392036;28;20103;-59
2023/05/13 03:24:50;;;;;;;7.65;5.32;;;;;;;9.68;67.97;100155.38;10404481;28;20030;-58
2023/05/13 03:29:54;;;;;;;24.20;7.97;;;;;;;9.67;67.90;100160.69;10400695;28;20049;-57
2023/05/13 03:34:59;;;;;;;177.95;11.38;;;;;;;9.68;68.08;100157.97;10400891;28;20046;-58
2023/05/13 03:40:03;;;;;;;889.28;30.13;;;;;;;9.60;68.49;100167.94;10389801;28;20151;-56
2023/05/13 03:45:06;;;;;;;79.72;7.45;;;;;;;9.82;68.46;100165.06;10389666;28;20045;-58
2023/05/13 03:50:09;;;;;;;361.73;11.95;;;;;;;9.89;68.39;100166.44;10390316;28;20049;-58
2023/05/13 03:55:16;;;;;;;719.95;27.92;;;;;;;9.92;68.22;100172.34;10420333;28;20057;-57
2023/05/13 04:00:18;;;;;;;655.55;18.98;;;;;;;9.82;68.50;100178.13;10390286;28;20401;-58
2023/05/13 04:05:22;;;;;;;463.60;17.60;;;;;;;9.97;68.78;100164.28;10389139;28;20045;-58
2023/05/13 04:10:24;;;;;;;235.57;9.18;;;;;;;10.00;68.72;100167.56;10440145;28;20139;-59
2023/05/13 04:15:26;;;;;;;502.98;15.90;;;;;;;9.92;68.79;100166.28;10420438;28;20167;-57
2023/05/13 04:20:28;;;;;;;214.32;8.77;;;;;;;10.09;68.82;100174.06;10444929;28;20047;-58
2023/05/13 04:25:30;;;;;;;194.02;9.20;;;;;;;10.23;68.45;100172.41;10414846;28;20400;-59
2023/05/13 04:30:34;;;;;;;262.92;12.13;;;;;;;10.47;67.94;100175.44;10427420;28;20073;-58
2023/05/13 04:35:37;;;;;;;415.23;12.93;;;;;;;10.61;67.05;100193.81;10422981;28;20136;-59
2023/05/13 04:40:39;;;;;;;438.25;17.83;;;;;;;10.50;67.03;100198.81;10437651;28;20041;-59
2023/05/13 04:45:46;;;;;;;404.83;12.10;;;;;;;10.59;67.13;100208.75;10387944;28;20053;-56
2023/05/13 04:50:50;;;;;;;864.20;26.25;;;;;;;10.52;67.07;100210.03;10422291;28;20073;-58
2023/05/13 04:55:59;;;;;;;213.57;14.43;;;;;;;10.62;67.05;100210.34;10410674;28;20132;-58
2023/05/13 05:01:02;;;;;;;27.35;8.52;;;;;;;10.85;67.15;100213.34;10403105;28;20524;-59
2023/05/13 05:06:05;;;;;;;262.75;12.48;;;;;;;11.10;66.68;100198.00;10391122;28;20140;-58
2023/05/13 05:11:07;;;;;;;19.23;7.32;;;;;;;11.56;65.83;100195.31;10419991;28;21225;-59
2023/05/13 05:16:10;;;;;;;79.35;7.57;;;;;;;11.69;65.81;100196.22;10403780;28;20135;-59
2023/05/13 05:21:12;;;;;;;46.92;7.55;;;;;;;11.69;65.64;100191.00;10386274;28;20047;-59
2023/05/13 05:26:14;;;;;;;118.57;10.35;;;;;;;11.78;65.51;100204.41;10389043;28;20473;-58
2023/05/13 05:31:17;;;;;;;95.60;9.70;;;;;;;11.65;65.44;100211.31;10423151;28;20041;-59
2023/05/13 05:36:19;;;;;;;232.75;16.13;;;;;;;11.61;65.45;100224.66;10408786;28;20041;-59
2023/05/13 05:41:21;;;;;;;150.05;10.43;;;;;;;11.80;65.09;100220.03;10432393;28;20037;-59
2023/05/13 05:46:23;;;;;;;355.25;17.38;;;;;;;12.00;64.61;100225.75;10425653;28;20389;-59
2023/05/13 05:51:26;;;;;;;177.95;13.63;;;;;;;12.77;63.38;100220.91;10400302;28;20045;-60
2023/05/13 05:56:28;;;;;;;43.58;7.43;;;;;;;12.84;63.15;100227.41;10405496;28;20841;-59
2023/05/13 06:01:32;;;;;;;11.68;5.70;;;;;;;12.95;63.04;100216.22;10404505;28;20157;-59
2023/05/13 06:06:35;;;;;;;459.20;19.27;;;;;;;12.78;62.83;100216.50;10405943;28;20045;-59
2023/05/13 06:11:39;;;;;;;470.58;24.38;;;;;;;12.70;62.85;100218.78;10415460;28;20395;-59
2023/05/13 06:16:40;;;;;;;278.83;16.65;;;;;;;12.31;63.50;100229.16;10404814;28;20057;-59
2023/05/13 06:21:43;;;;;;;322.85;20.63;;;;;;;12.04;64.27;100235.13;10398968;28;20041;-59
2023/05/13 06:26:46;;;;;;;102.18;13.43;;;;;;;12.13;64.16;100236.31;10396262;28;20055;-59
2023/05/13 06:31:48;;;;;;;74.47;13.88;;;;;;;12.24;63.99;100230.41;10404865;28;20037;-59
2023/05/13 06:36:50;;;;;;;41.95;13.45;;;;;;;12.52;63.78;100230.41;10400952;28;20050;-60
2023/05/13 06:41:52;;;;;;;19.15;9.32;;;;;;;12.76;63.66;100229.69;10428277;28;20406;-59
2023/05/13 06:46:57;;;;;;;21.05;8.73;;;;;;;13.55;62.33;100230.63;10448649;28;20078;-59
2023/05/13 06:51:58;;;;;;;29.77;9.70;;;;;;;14.75;59.97;100235.38;10411514;28;20061;-59
2023/05/13 06:57:00;;;;;;;9.90;8.10;;;;;;;15.20;58.52;100229.38;10410484;28;20124;-59
2023/05/13 07:02:03;;;;;;;7.68;6.75;;;;;;;15.74;57.70;100219.97;10397358;28;20394;-59
2023/05/13 07:07:05;;;;;;;8.95;7.53;;;;;;;16.12;56.54;100217.03;10440025;28;20041;-59
2023/05/13 07:12:09;;;;;;;9.00;7.45;;;;;;;15.09;57.74;100224.91;10416579;28;20053;-59
2023/05/13 07:17:10;;;;;;;7.63;6.82;;;;;;;14.93;58.68;100219.06;10381795;28;20515;-59
2023/05/13 07:22:12;;;;;;;10.27;7.53;;;;;;;14.92;58.16;100220.00;10382634;28;20063;-58
2023/05/13 07:27:14;;;;;;;11.32;7.80;;;;;;;15.23;58.06;100211.53;10379545;28;20188;-59
2023/05/13 07:32:16;;;;;;;6.72;5.97;;;;;;;16.76;55.04;100202.22;10383479;28;20049;-59
2023/05/13 07:37:18;;;;;;;9.02;6.80;;;;;;;17.99;52.35;100205.94;10385075;28;20049;-59
2023/05/13 07:42:20;;;;;;;7.00;5.97;;;;;;;18.02;51.84;100200.38;10398457;28;20037;-59
2023/05/13 07:47:22;;;;;;;7.85;5.50;;;;;;;18.97;50.12;100192.72;10394157;28;20037;-60
2023/05/13 07:52:25;;;;;;;6.95;4.80;;;;;;;19.87;47.70;100190.56;10383707;28;20120;-59
2023/05/13 07:57:27;;;;;;;8.35;4.88;;;;;;;20.36;46.33;100192.09;10386713;28;20048;-60
2023/05/13 08:02:33;;;;;;;7.00;4.53;;;;;;;20.71;44.67;100186.84;10382762;28;20124;-59
2023/05/13 08:07:35;;;;;;;6.47;4.80;;;;;;;20.80;43.51;100186.81;10389613;28;20573;-59
2023/05/13 08:12:39;;;;;;;5.97;4.72;;;;;;;20.50;43.71;100180.97;10403006;28;20056;-60
2023/05/13 08:17:41;;;;;;;7.43;4.95;;;;;;;20.79;43.21;100179.81;10433420;28;20099;-60
2023/05/13 08:22:42;;;;;;;6.70;4.68;;;;;;;21.06;43.45;100176.25;10419713;28;20038;-60
2023/05/13 08:27:44;;;;;;;6.30;4.43;;;;;;;21.13;41.63;100176.47;10402362;28;20135;-60
2023/05/13 08:32:46;;;;;;;8.50;4.22;;;;;;;21.50;42.60;100169.97;10403930;28;20045;-60
2023/05/13 08:37:48;;;;;;;8.05;4.20;;;;;;;21.38;41.59;100170.38;10401790;28;20064;-60
2023/05/13 08:42:54;;;;;;;5.38;3.67;;;;;;;22.06;39.39;100168.69;10396242;28;20045;-60
2023/05/13 08:48:01;;;;;;;8.38;3.80;;;;;;;22.24;40.49;100170.28;10414125;28;20140;-60
2023/05/13 08:53:05;;;;;;;6.80;3.85;;;;;;;22.31;40.45;100162.50;10404202;28;20042;-60
2023/05/13 08:58:07;;;;;;;5.55;3.80;;;;;;;21.99;39.86;100160.47;10410484;28;20540;-60
2023/05/13 09:03:08;;;;;;;3.92;2.90;;;;;;;22.37;38.86;100157.31;10418954;28;20048;-60
2023/05/13 09:08:11;;;;;;;6.80;3.30;;;;;;;22.46;37.09;100160.84;10402507;28;20055;-60
2023/05/13 09:13:13;;;;;;;4.85;3.05;;;;;;;22.40;38.92;100159.69;10412003;28;20446;-60
2023/05/13 09:18:15;;;;;;;5.05;2.80;;;;;;;22.65;36.41;100153.44;10398398;28;20502;-60
2023/05/13 09:23:22;;;;;;;4.88;3.10;;;;;;;22.79;36.76;100146.66;10404233;28;20053;-60
2023/05/13 09:28:24;;;;;;;6.35;3.13;;;;;;;22.89;37.35;100151.81;10400031;28;20084;-60
2023/05/13 09:33:29;;;;;;;5.43;3.08;;;;;;;22.96;36.97;100152.84;10399073;28;20059;-60
2023/05/13 09:38:33;;;;;;;5.50;2.85;;;;;;;23.08;37.11;100147.00;10403020;28;20141;-59
2023/05/13 09:43:38;;;;;;;6.40;3.05;;;;;;;23.46;37.45;100140.16;10432451;28;20037;-59
2023/05/13 09:48:42;;;;;;;4.43;2.70;;;;;;;23.35;36.54;100137.84;10393707;28;20148;-60
2023/05/13 09:53:46;;;;;;;5.20;2.70;;;;;;;23.09;35.75;100134.47;10407205;28;20508;-60
2023/05/13 09:58:51;;;;;;;6.32;2.67;;;;;;;23.30;36.46;100126.81;10396191;28;20041;-60
2023/05/13 10:03:58;;;;;;;8.05;2.80;;;;;;;22.69;35.73;100132.59;10402175;28;20049;-60
2023/05/13 10:09:03;;;;;;;3.75;2.50;;;;;;;23.33;36.59;100121.16;10405096;28;20540;-60
2023/05/13 10:14:06;;;;;;;5.85;2.50;;;;;;;23.47;35.23;100123.16;10435111;28;20119;-60
2023/05/13 10:19:08;;;;;;;6.43;2.53;;;;;;;23.57;35.21;100113.13;10403455;28;20061;-60
2023/05/13 10:24:12;;;;;;;4.53;2.45;;;;;;;23.40;34.74;100109.66;10413767;28;20182;-60
2023/05/13 10:29:14;;;;;;;6.53;2.60;;;;;;;23.36;33.50;100100.28;10408277;28;20402;-60
2023/05/13 10:34:16;;;;;;;4.85;2.28;;;;;;;22.57;34.16;100093.91;10447382;28;20041;-60
2023/05/13 10:39:18;;;;;;;5.95;2.60;;;;;;;22.84;34.19;100096.28;10406848;28;20077;-60
2023/05/13 10:44:21;;;;;;;3.55;2.25;;;;;;;22.48;35.04;100085.06;10406322;28;20042;-60
2023/05/13 10:49:31;;;;;;;5.72;2.40;;;;;;;22.24;36.82;100095.69;10388510;28;20140;-60
2023/05/13 10:54:37;;;;;;;;;;;;;;;21.84;36.05;100095.50;10407699;28;20096;-60
2023/05/13 11:00:13;;;;;;;5.07;2.42;;;;;;;21.59;36.29;100088.38;10401749;28;19950;-60
2023/05/13 11:05:19;;;;;;;5.22;2.50;;;;;;;21.61;34.17;100078.41;10418758;28;21759;-60
2023/05/13 11:10:28;;;;;;;4.85;2.65;;;;;;;21.84;34.13;100076.84;10422347;28;20102;-60
2023/05/13 11:15:51;;;;;;;5.75;2.65;;;;;;;21.91;33.54;100069.88;10417966;28;20041;-59
2023/05/13 11:20:53;;;;;;;7.43;2.60;;;;;;;22.24;34.19;100073.53;10398485;28;20048;-59
2023/05/13 11:26:15;;;;;;;7.25;2.78;;;;;;;22.37;34.57;100066.72;10408866;28;20042;-59
2023/05/13 11:31:17;;;;;;;5.95;2.40;;;;;;;22.65;33.66;100065.44;10402061;28;20045;-59
2023/05/13 11:36:20;;;;;;;6.03;2.42;;;;;;;22.62;34.64;100060.44;10405115;28;20489;-60
2023/05/13 11:41:23;;;;;;;9.90;2.50;;;;;;;22.86;33.51;100048.16;10397441;28;20167;-60
2023/05/13 11:46:25;;;;;;;6.45;2.38;;;;;;;22.81;34.05;100045.97;10401542;28;20067;-60
2023/05/13 11:51:27;;;;;;;5.55;2.55;;;;;;;22.80;33.99;100040.81;10399385;28;20048;-59
2023/05/13 11:56:29;;;;;;;7.38;2.22;;;;;;;22.36;34.36;100050.91;10422704;28;20095;-60
2023/05/13 12:01:31;;;;;;;8.10;2.40;;;;;;;22.07;34.92;100040.66;10404143;28;20482;-59
2023/05/13 12:06:34;;;;;;;6.10;2.40;;;;;;;22.60;35.55;100041.09;10397763;28;20132;-60
2023/05/13 12:11:36;;;;;;;4.07;2.35;;;;;;;23.49;32.95;100036.53;10427022;28;20040;-59
2023/05/13 12:16:38;;;;;;;4.75;2.90;;;;;;;23.62;31.73;100030.66;10402538;28;20039;-59
2023/05/13 12:21:40;;;;;;;3.83;2.60;;;;;;;22.96;31.80;100032.81;10418668;28;20041;-60
2023/05/13 12:26:42;;;;;;;6.32;2.25;;;;;;;22.76;33.68;100032.28;10400412;28;20038;-60
2023/05/13 12:32:02;;;;;;;7.40;2.70;;;;;;;22.88;33.01;100024.81;10427973;28;20047;-59
2023/05/13 12:37:12;;;;;;;6.88;2.30;;;;;;;23.22;32.01;100036.94;10388438;28;20528;-59
2023/05/13 12:42:16;;;;;;;5.30;2.42;;;;;;;22.75;31.88;100040.47;10396861;28;20037;-60
2023/05/13 12:47:19;;;;;;;3.80;2.00;;;;;;;22.12;32.03;100049.03;10396353;28;20085;-60
2023/05/13 12:52:21;;;;;;;4.93;2.08;;;;;;;22.07;30.79;100050.50;10401921;28;20757;-60
2023/05/13 12:57:23;;;;;;;6.90;2.00;;;;;;;21.81;29.14;100038.06;10415913;28;20080;-60
2023/05/13 13:02:24;;;;;;;5.07;2.15;;;;;;;22.06;29.13;100035.50;10403944;28;20128;-60
2023/05/13 13:07:26;;;;;;;7.38;2.50;;;;;;;22.18;28.58;100036.88;10411968;28;20077;-60
2023/05/13 13:12:28;;;;;;;3.25;2.22;;;;;;;22.62;28.83;100038.25;10403584;28;20069;-60
2023/05/13 13:17:30;;;;;;;5.85;2.25;;;;;;;23.36;29.48;100014.88;10398662;28;20129;-60
2023/05/13 13:22:33;;;;;;;5.90;2.28;;;;;;;22.77;29.06;100043.81;10401221;28;20042;-60
2023/05/13 13:27:35;;;;;;;4.82;2.10;;;;;;;20.05;35.92;100050.81;10407428;28;20160;-59
2023/05/13 13:32:36;;;;;;;4.22;2.10;;;;;;;18.79;40.78;100069.84;10404588;28;20187;-59
2023/05/13 13:37:38;;;;;;;5.40;2.38;;;;;;;18.55;40.85;100102.06;10429983;28;20425;-60
2023/05/13 13:42:40;;;;;;;7.05;3.45;;;;;;;16.76;47.71;100091.28;10438980;28;20128;-59
2023/05/13 13:47:45;;;;;;;6.63;3.42;;;;;;;15.13;53.05;100099.91;10433368;28;20052;-59
2023/05/13 13:52:47;;;;;;;7.13;3.40;;;;;;;14.90;54.83;100102.59;10402588;28;20506;-59
2023/05/13 13:57:50;;;;;;;6.15;3.10;;;;;;;14.97;54.05;100101.16;10403259;28;20588;-59
2023/05/13 14:02:52;;;;;;;7.18;2.90;;;;;;;15.30;52.79;100090.72;10404840;28;20507;-59
2023/05/13 14:07:54;;;;;;;6.82;2.60;;;;;;;15.57;51.67;100096.50;10409571;28;20072;-59
2023/05/13 14:12:56;;;;;;;5.53;3.05;;;;;;;16.07;51.95;100098.66;10404854;28;20038;-59
2023/05/13 14:17:58;;;;;;;6.07;2.60;;;;;;;16.73;50.50;100097.66;10408550;28;20048;-59
2023/05/13 14:23:01;;;;;;;6.38;2.70;;;;;;;17.53;49.35;100096.13;10415103;28;20041;-59
2023/05/13 14:28:05;;;;;;;3.70;2.40;;;;;;;18.25;48.53;100107.44;10403542;28;20107;-59
2023/05/13 14:33:07;;;;;;;4.05;2.38;;;;;;;18.67;47.70;100093.00;10405828;28;20042;-59
2023/05/13 14:38:09;;;;;;;4.47;2.40;;;;;;;19.03;46.73;100093.28;10401613;28;20053;-59
2023/05/13 14:43:11;;;;;;;4.25;2.15;;;;;;;18.80;45.22;100135.13;10403434;28;20045;-59
2023/05/13 14:48:13;;;;;;;5.93;2.28;;;;;;;18.42;45.12;100161.56;10403609;28;20144;-59
2023/05/13 14:53:15;;;;;;;3.55;2.08;;;;;;;18.25;45.49;100170.97;10416575;28;20140;-59
2023/05/13 14:58:17;;;;;;;6.22;2.50;;;;;;;17.77;46.48;100149.56;10402083;28;20033;-59
2023/05/13 15:03:19;;;;;;;6.13;2.72;;;;;;;17.55;50.20;100102.13;10401344;28;20042;-59
2023/05/13 15:08:21;;;;;;;6.07;2.75;;;;;;;17.52;51.47;100088.34;10401893;28;20107;-59
2023/05/13 15:13:23;;;;;;;4.00;2.78;;;;;;;17.35;51.63;100108.28;10400158;28;20069;-58
2023/05/13 15:18:25;;;;;;;3.45;2.38;;;;;;;17.27;52.47;100097.50;10404484;28;20124;-57
2023/05/13 15:23:27;;;;;;;3.70;2.50;;;;;;;16.94;52.97;100089.75;10392743;28;20095;-56
2023/05/13 15:28:29;;;;;;;7.30;3.05;;;;;;;16.87;54.22;100088.59;10392096;28;20124;-58
2023/05/13 15:33:31;;;;;;;7.00;2.70;;;;;;;16.93;54.46;100072.25;10396372;28;20387;-59
2023/05/13 15:38:33;;;;;;;6.28;2.47;;;;;;;16.97;53.96;100073.66;10393152;28;20072;-59
2023/05/13 15:43:35;;;;;;;5.60;2.53;;;;;;;17.52;53.95;100070.69;10397365;28;20045;-58
2023/05/13 15:48:37;;;;;;;3.65;2.20;;;;;;;18.22;51.70;100067.19;10389773;28;20045;-58
2023/05/13 15:53:39;;;;;;;4.60;2.10;;;;;;;18.53;48.52;100080.16;10404646;28;20037;-59
2023/05/13 15:58:41;;;;;;;4.30;2.10;;;;;;;18.61;49.03;100077.66;10403030;28;20072;-58
2023/05/13 16:03:42;;;;;;;6.00;2.30;;;;;;;19.91;47.33;100054.78;10398496;28;20073;-59
2023/05/13 16:08:44;;;;;;;7.68;2.30;;;;;;;20.81;44.69;100058.22;10399375;28;20359;-58
2023/05/13 16:13:46;;;;;;;5.15;1.98;;;;;;;21.24;42.76;100064.50;10428777;28;20052;-59
2023/05/13 16:18:48;;;;;;;9.77;2.20;;;;;;;21.51;42.71;100065.22;10402202;28;20059;-59
2023/05/13 16:23:50;;;;;;;4.07;2.20;;;;;;;20.63;40.40;100094.59;10404043;28;20126;-59
2023/05/13 16:28:52;;;;;;;6.35;2.38;;;;;;;19.33;45.23;100124.94;10385507;28;20057;-59
2023/05/13 16:33:53;;;;;;;3.90;2.50;;;;;;;18.53;46.25;100121.69;10424467;28;20056;-59
2023/05/13 16:38:56;;;;;;;5.10;2.80;;;;;;;18.41;49.42;100096.31;10403971;28;20494;-58
2023/05/13 16:43:58;;;;;;;5.47;3.00;;;;;;;18.33;51.19;100057.28;10400891;28;20404;-58
2023/05/13 16:48:59;;;;;;;5.50;3.08;;;;;;;18.00;52.17;100025.00;10404707;28;20076;-58
2023/05/13 16:54:01;;;;;;;6.18;2.58;;;;;;;17.08;52.83;100030.47;10403894;28;20199;-58
2023/05/13 16:59:03;;;;;;;4.22;2.70;;;;;;;17.19;52.98;100049.72;10402190;28;20038;-58
2023/05/13 17:04:05;;;;;;;5.10;2.70;;;;;;;17.79;54.12;100057.69;10421406;28;20128;-58
2023/05/13 17:09:07;;;;;;;5.38;2.50;;;;;;;17.62;52.20;100062.78;10403936;28;20049;-58
2023/05/13 17:14:09;;;;;;;4.78;2.42;;;;;;;17.50;52.15;100067.31;10400141;28;20156;-58
2023/05/13 17:19:10;;;;;;;5.07;2.90;;;;;;;17.33;53.81;100072.34;10415191;28;20055;-58
2023/05/13 17:24:12;;;;;;;5.57;2.80;;;;;;;17.12;54.57;100088.19;10443061;28;20044;-58
2023/05/13 17:29:15;;;;;;;5.30;3.00;;;;;;;16.72;54.20;100103.06;10401606;28;20050;-59
2023/05/13 17:34:19;;;;;;;6.10;2.75;;;;;;;16.30;54.06;100101.25;10416050;28;20037;-58
2023/05/13 17:39:21;;;;;;;4.78;2.80;;;;;;;15.84;52.87;100107.53;10442652;28;20608;-58
2023/05/13 17:44:23;;;;;;;6.57;2.90;;;;;;;15.64;54.53;100110.06;10401014;28;20047;-59
2023/05/13 17:49:25;;;;;;;5.30;3.10;;;;;;;15.40;54.83;100110.13;10404268;28;20054;-58
2023/05/13 17:54:27;;;;;;;7.43;3.67;;;;;;;15.26;57.40;100099.81;10405187;28;20103;-58
2023/05/13 17:59:29;;;;;;;6.72;3.30;;;;;;;15.26;56.73;100105.94;10390126;28;20042;-59
2023/05/13 18:04:31;;;;;;;9.88;4.13;;;;;;;15.30;58.97;100096.00;10408638;28;20515;-59
2023/05/13 18:09:32;;;;;;;7.38;4.18;;;;;;;15.25;58.75;100084.94;10391347;28;20048;-59
2023/05/13 18:14:34;;;;;;;5.93;3.67;;;;;;;15.15;59.27;100089.25;10398413;28;20081;-59
2023/05/13 18:19:36;;;;;;;6.22;4.32;;;;;;;15.06;59.71;100093.41;10395267;28;20054;-59
2023/05/13 18:24:38;;;;;;;7.90;3.70;;;;;;;14.84;59.57;100095.97;10391294;28;20112;-59
2023/05/13 18:29:40;;;;;;;7.13;4.22;;;;;;;14.80;61.00;100096.34;10399632;28;20951;-59
2023/05/13 18:34:42;;;;;;;7.05;4.45;;;;;;;14.79;60.53;100115.72;10400711;28;20056;-59
2023/05/13 18:39:44;;;;;;;7.35;4.63;;;;;;;14.52;60.94;100121.19;10409013;28;20045;-59
2023/05/13 18:44:46;;;;;;;6.95;4.15;;;;;;;14.07;61.13;100146.34;10399549;28;20571;-59
2023/05/13 18:49:48;;;;;;;6.78;4.53;;;;;;;13.69;62.52;100148.19;10402412;28;20144;-59
2023/05/13 18:54:50;;;;;;;8.02;4.60;;;;;;;13.84;61.36;100160.25;10397975;28;20049;-59
2023/05/13 18:59:52;;;;;;;7.65;4.68;;;;;;;13.88;62.65;100167.00;10405361;28;20075;-59
2023/05/13 19:04:53;;;;;;;10.32;5.10;;;;;;;13.97;62.97;100155.84;10427576;28;20045;-59
2023/05/13 19:09:58;;;;;;;9.32;4.53;;;;;;;13.83;63.23;100158.59;10402301;28;20096;-59
2023/05/13 19:15:01;;;;;;;10.07;5.43;;;;;;;13.68;62.92;100162.28;10416295;28;20147;-58
2023/05/13 19:20:03;;;;;;;8.15;5.53;;;;;;;13.76;63.45;100155.53;10401481;28;20106;-58
2023/05/13 19:25:05;;;;;;;8.55;5.72;;;;;;;13.84;63.92;100152.38;10417944;28;20041;-58
2023/05/13 19:30:07;;;;;;;8.02;5.75;;;;;;;13.61;63.42;100146.13;10397676;28;20506;-58
2023/05/13 19:35:10;;;;;;;10.70;6.40;;;;;;;13.54;64.09;100149.25;10409856;28;20145;-58
2023/05/13 19:40:12;;;;;;;8.77;5.95;;;;;;;13.60;64.13;100139.16;10397583;28;20475;-58
2023/05/13 19:45:18;;;;;;;6.60;5.85;;;;;;;13.46;63.39;100139.25;10390577;28;20079;-58
2023/05/13 19:50:20;;;;;;;7.53;5.80;;;;;;;13.11;64.50;100145.19;10400533;28;20048;-58
2023/05/13 19:55:23;;;;;;;9.45;6.45;;;;;;;12.98;64.52;100145.97;10390529;28;20041;-58
2023/05/13 20:00:24;;;;;;;11.13;6.32;;;;;;;12.91;64.62;100144.72;10393869;28;20131;-56
2023/05/13 20:05:26;;;;;;;9.52;6.03;;;;;;;12.91;64.66;100143.88;10402271;28;20152;-57
2023/05/13 20:10:28;;;;;;;7.38;6.07;;;;;;;12.86;64.84;100143.34;10411572;28;20053;-57
2023/05/13 20:15:33;;;;;;;15.77;7.88;;;;;;;12.77;64.53;100147.41;10390350;28;20128;-56
2023/05/13 20:20:35;;;;;;;10.50;6.90;;;;;;;12.45;64.94;100151.28;10400405;28;20136;-58
2023/05/13 20:25:36;;;;;;;11.77;6.85;;;;;;;12.31;65.14;100150.47;10395206;28;20052;-58
2023/05/13 20:30:41;;;;;;;7.63;6.82;;;;;;;12.35;65.38;100155.44;10393753;28;20364;-56
2023/05/13 20:35:43;;;;;;;9.35;7.75;;;;;;;12.34;65.33;100148.47;10393893;28;20121;-58
2023/05/13 20:40:46;;;;;;;14.65;7.72;;;;;;;12.33;65.32;100144.19;10400392;28;20048;-58
2023/05/13 20:45:48;;;;;;;17.83;10.10;;;;;;;12.12;64.95;100153.38;10400464;28;20055;-58
2023/05/13 20:50:57;;;;;;;14.30;10.43;;;;;;;11.81;66.11;100170.13;10383460;28;20084;-58
2023/05/13 20:56:01;;;;;;;12.65;8.65;;;;;;;11.73;65.90;100168.91;10399510;28;20038;-58
2023/05/13 21:01:03;;;;;;;12.30;9.70;;;;;;;11.75;66.03;100160.03;10395621;28;20041;-57
2023/05/13 21:06:05;;;;;;;14.13;11.63;;;;;;;11.85;66.31;100160.31;10381745;28;21601;-57
2023/05/13 21:11:07;;;;;;;10.38;7.90;;;;;;;11.88;66.34;100158.38;10383965;28;20057;-56
2023/05/13 21:16:08;;;;;;;8.60;7.15;;;;;;;11.81;65.80;100157.03;10409271;28;20048;-57
2023/05/13 21:21:13;;;;;;;9.55;7.57;;;;;;;11.77;65.73;100158.16;10430967;28;20129;-58
2023/05/13 21:26:15;;;;;;;12.90;7.07;;;;;;;11.64;66.11;100161.63;10408338;28;20053;-58
2023/05/13 21:31:17;;;;;;;23.75;10.77;;;;;;;11.61;66.14;100157.41;10411972;28;20048;-56
2023/05/13 21:36:19;;;;;;;316.55;22.48;;;;;;;11.44;65.72;100154.13;10444364;28;20061;-57
2023/05/13 21:41:21;;;;;;;579.78;27.42;;;;;;;11.17;66.39;100162.66;10430185;28;20041;-58
2023/05/13 21:46:23;;;;;;;289.30;15.75;;;;;;;10.95;66.16;100161.38;10444351;28;20463;-58
2023/05/13 21:51:25;;;;;;;12.57;8.20;;;;;;;10.81;66.85;100169.97;10418962;28;20143;-58
2023/05/13 21:56:26;;;;;;;7.10;6.30;;;;;;;10.92;66.82;100165.00;10417187;28;20041;-58
2023/05/13 22:01:28;;;;;;;71.63;13.98;;;;;;;10.95;66.63;100162.19;10415824;28;20128;-59
2023/05/13 22:06:32;;;;;;;256.25;20.73;;;;;;;10.89;66.74;100172.19;10410920;28;20397;-55
2023/05/13 22:11:34;;;;;;;24.23;9.75;;;;;;;10.83;67.03;100156.81;10433218;28;20076;-55
2023/05/13 22:16:35;;;;;;;24.63;9.40;;;;;;;10.85;66.76;100158.41;10421150;28;20045;-58
2023/05/13 22:21:37;;;;;;;69.20;12.10;;;;;;;10.89;66.63;100159.91;10428712;28;20144;-58
2023/05/13 22:26:42;;;;;;;131.57;14.52;;;;;;;10.76;66.59;100150.25;10437417;28;20084;-58
2023/05/13 22:31:44;;;;;;;286.95;18.98;;;;;;;10.59;66.64;100164.28;10434622;28;20053;-54
2023/05/13 22:36:46;;;;;;;14.68;8.50;;;;;;;10.58;67.07;100162.59;10446720;28;20055;-57
2023/05/13 22:41:48;;;;;;;38.03;10.90;;;;;;;10.53;66.35;100169.84;10427395;28;20067;-57
2023/05/13 22:46:51;;;;;;;360.50;14.50;;;;;;;10.46;66.78;100174.56;10446638;28;20501;-56
2023/05/13 22:51:53;;;;;;;563.45;21.75;;;;;;;10.23;66.89;100172.41;10417893;28;20045;-56
2023/05/13 22:56:55;;;;;;;696.33;25.90;;;;;;;10.12;67.12;100172.13;10407481;28;20057;-58
2023/05/13 23:01:57;;;;;;;11.00;7.32;;;;;;;10.21;67.10;100166.41;10424907;28;20049;-57